Time;durP1;ratioP1;P1;durP2;ratioP2;P2;SDS_P1;SDS_P2;PMS_P1;PMS_P2;Temp;Humidity;BMP_temperature;BMP_pressure;BME280_temperature;BME280_humidity;BME280_pressure;Samples;Min_cycle;Max_cycle;Signal;HPM_P1;HPM_P2
2023/01/25 00:01:54;;;;;;;48.17;34.13;;;0.60;99.90;;;;;;5019736;27;90243;-33
2023/01/25 00:04:21;;;;;;;43.85;31.10;;;0.60;99.90;;;;;;5019368;27;90490;-31
2023/01/25 00:06:48;;;;;;;46.00;33.95;;;0.60;99.90;;;;;;5020039;28;89367;-32
2023/01/25 00:09:14;;;;;;;49.65;34.60;;;0.60;99.90;;;;;;5019757;28;89159;-33
2023/01/25 00:11:40;;;;;;;48.38;34.17;;;0.60;99.90;;;;;;5019210;27;90020;-31
2023/01/25 00:14:06;;;;;;;45.88;32.42;;;0.70;99.90;;;;;;5019134;28;89688;-33
2023/01/25 00:16:32;;;;;;;52.40;33.70;;;0.60;99.90;;;;;;5019229;28;90209;-32
2023/01/25 00:18:58;;;;;;;45.17;32.97;;;0.60;99.90;;;;;;5019657;28;88319;-31
2023/01/25 00:21:25;;;;;;;49.40;34.20;;;0.60;99.90;;;;;;5019815;27;90198;-32
2023/01/25 00:23:51;;;;;;;45.25;31.63;;;0.60;99.90;;;;;;5018618;28;89709;-32
2023/01/25 00:26:17;;;;;;;51.88;35.70;;;0.60;99.90;;;;;;5019782;28;89033;-34
2023/01/25 00:28:42;;;;;;;44.20;32.22;;;0.60;99.90;;;;;;5019166;28;90780;-33
2023/01/25 00:31:15;;;;;;;48.28;31.60;;;0.60;99.90;;;;;;5019285;27;90181;-33
2023/01/25 00:33:51;;;;;;;56.50;30.85;;;0.60;99.90;;;;;;5018885;27;90230;-32
2023/01/25 00:36:26;;;;;;;42.47;30.60;;;0.50;99.90;;;;;;5018744;28;90102;-31
2023/01/25 00:38:53;;;;;;;45.58;34.25;;;0.60;99.90;;;;;;5019490;28;88138;-31
2023/01/25 00:41:19;;;;;;;42.05;31.60;;;0.60;99.90;;;;;;5018961;28;90222;-32
2023/01/25 00:43:44;;;;;;;47.70;35.75;;;0.60;99.90;;;;;;5019432;28;89841;-31
2023/01/25 00:46:14;;;;;;;51.40;36.97;;;0.50;99.90;;;;;;5019801;27;89898;-31
2023/01/25 00:48:40;;;;;;;44.40;32.95;;;0.50;99.90;;;;;;5017695;28;89049;-31
2023/01/25 00:51:06;;;;;;;46.05;31.88;;;0.40;99.90;;;;;;5018459;28;90725;-31
2023/01/25 00:53:31;;;;;;;47.45;32.35;;;0.40;99.90;;;;;;5018446;27;90829;-31
2023/01/25 00:55:57;;;;;;;51.80;33.92;;;0.50;99.90;;;;;;5018389;27;90405;-32
2023/01/25 00:58:22;;;;;;;47.80;33.55;;;0.50;99.90;;;;;;5019067;27;88944;-31
2023/01/25 01:00:48;;;;;;;45.45;33.83;;;0.40;99.90;;;;;;5018262;28;90056;-31
2023/01/25 01:03:15;;;;;;;46.45;35.42;;;0.40;99.90;;;;;;5018055;28;89494;-33
2023/01/25 01:05:40;;;;;;;47.88;34.30;;;0.40;99.90;;;;;;5018645;28;89574;-32
2023/01/25 01:08:06;;;;;;;50.85;36.00;;;0.40;99.90;;;;;;5018135;27;88148;-32
2023/01/25 01:10:31;;;;;;;43.92;35.38;;;0.40;99.90;;;;;;5019034;28;90939;-32
2023/01/25 01:12:57;;;;;;;46.00;33.75;;;0.30;99.90;;;;;;5018358;27;89689;-32
2023/01/25 01:15:23;;;;;;;43.88;33.20;;;0.30;99.90;;;;;;5018515;27;89638;-31
2023/01/25 01:17:48;;;;;;;45.50;33.03;;;0.30;99.90;;;;;;5017905;27;89168;-31
2023/01/25 01:20:14;;;;;;;47.05;34.13;;;0.40;99.90;;;;;;5018066;27;90465;-31
2023/01/25 01:22:40;;;;;;;53.15;34.90;;;0.30;99.90;;;;;;5018831;27;89122;-31
2023/01/25 01:25:06;;;;;;;58.67;35.95;;;0.30;99.90;;;;;;5017721;28;89532;-33
2023/01/25 01:27:31;;;;;;;51.13;35.25;;;0.40;99.90;;;;;;5018654;28;89367;-32
2023/01/25 01:29:57;;;;;;;46.20;33.83;;;0.30;99.90;;;;;;5017730;28;90349;-33
2023/01/25 01:32:23;;;;;;;48.58;35.58;;;0.30;99.90;;;;;;5018329;28;89868;-33
2023/01/25 01:34:48;;;;;;;43.72;34.70;;;0.30;99.90;;;;;;5018406;27;89385;-31
2023/01/25 01:37:14;;;;;;;56.17;36.75;;;0.30;99.90;;;;;;5017655;27;88851;-32
2023/01/25 01:39:39;;;;;;;49.90;36.08;;;0.30;99.90;;;;;;5018377;27;90189;-33
2023/01/25 01:42:05;;;;;;;48.42;36.92;;;0.30;99.90;;;;;;5017633;28;90431;-33
2023/01/25 01:45:00;;;;;;;50.20;36.92;;;0.30;99.90;;;;;;5018622;28;90538;-34
2023/01/25 01:47:38;;;;;;;49.42;34.20;;;0.30;99.90;;;;;;4999299;28;89290;-33
2023/01/25 01:50:17;;;;;;;42.63;32.50;;;0.30;99.90;;;;;;5018285;28;90376;-31
2023/01/25 01:52:42;;;;;;;46.05;32.80;;;0.30;99.90;;;;;;5018041;28;90019;-32
2023/01/25 01:55:16;;;;;;;51.08;34.85;;;0.30;99.90;;;;;;5018016;27;89529;-32
2023/01/25 01:57:53;;;;;;;47.08;36.08;;;0.30;99.90;;;;;;5018727;27;88235;-33
2023/01/25 02:00:24;;;;;;;47.95;32.03;;;0.20;99.90;;;;;;5006615;27;90213;-32
2023/01/25 02:02:51;;;;;;;42.40;27.85;;;0.30;99.90;;;;;;5021252;28;90153;-33
2023/01/25 02:05:24;;;;;;;51.70;37.28;;;0.60;99.90;;;;;;5021339;28;89886;-32
2023/01/25 02:07:52;;;;;;;51.88;34.75;;;0.40;99.90;;;;;;5021732;27;89921;-31
2023/01/25 02:10:19;;;;;;;48.80;34.93;;;0.30;99.90;;;;;;5021480;28;90085;-33
2023/01/25 02:12:44;;;;;;;52.60;36.28;;;0.30;99.90;;;;;;5021014;27;89386;-33
2023/01/25 02:15:11;;;;;;;49.42;35.55;;;0.20;99.90;;;;;;5022048;28;89873;-31
2023/01/25 02:17:38;;;;;;;57.20;38.80;;;0.30;99.90;;;;;;5020362;27;89409;-32
2023/01/25 02:20:07;;;;;;;55.58;38.70;;;0.20;99.90;;;;;;5021372;27;90094;-33
2023/01/25 02:22:57;;;;;;;48.08;36.55;;;0.20;99.90;;;;;;5021266;27;90634;-32
2023/01/25 02:25:24;;;;;;;48.85;36.33;;;0.20;99.90;;;;;;5021268;27;89422;-31
2023/01/25 02:28:13;;;;;;;51.10;40.30;;;0.20;99.90;;;;;;5021331;27;89463;-33
2023/01/25 02:30:39;;;;;;;52.55;36.92;;;0.20;99.90;;;;;;5002857;28;89245;-32
2023/01/25 02:33:04;;;;;;;52.05;38.35;;;0.20;99.90;;;;;;5020901;27;90617;-33
2023/01/25 02:35:50;;;;;;;50.80;34.53;;;0.20;99.90;;;;;;5020687;27;90462;-31
2023/01/25 02:38:18;;;;;;;51.45;35.08;;;0.20;99.90;;;;;;5022034;27;89199;-34
2023/01/25 02:41:05;;;;;;;49.17;35.35;;;0.30;99.90;;;;;;5021069;28;89889;-31
2023/01/25 02:43:33;;;;;;;48.75;35.38;;;0.20;99.90;;;;;;5021555;28;89667;-32
2023/01/25 02:46:13;;;;;;;51.53;35.33;;;0.20;99.90;;;;;;5020271;27;88365;-32
2023/01/25 02:48:38;;;;;;;53.83;36.17;;;0.20;99.90;;;;;;5019799;27;88128;-30
2023/01/25 02:51:08;;;;;;;51.38;37.22;;;0.20;99.90;;;;;;5020876;28;89478;-31
2023/01/25 02:53:34;;;;;;;50.95;38.03;;;0.20;99.90;;;;;;5020592;27;89208;-31
2023/01/25 02:55:59;;;;;;;50.58;36.20;;;0.20;99.90;;;;;;5020819;28;89468;-30
2023/01/25 02:58:25;;;;;;;51.13;37.88;;;0.20;99.90;;;;;;5019649;27;90630;-32
2023/01/25 03:00:51;;;;;;;53.28;35.72;;;0.20;99.90;;;;;;5020748;27;90467;-30
2023/01/25 03:03:17;;;;;;;54.50;39.75;;;0.20;99.90;;;;;;5020306;28;91491;-33
2023/01/25 03:05:43;;;;;;;50.65;37.33;;;0.20;99.90;;;;;;5020461;27;89706;-31
2023/01/25 03:08:09;;;;;;;48.78;37.20;;;0.20;99.90;;;;;;5021203;27;89874;-31
2023/01/25 03:10:34;;;;;;;56.45;40.33;;;0.20;99.90;;;;;;5020216;28;90248;-31
2023/01/25 03:13:00;;;;;;;49.67;35.55;;;0.20;99.90;;;;;;5019892;27;89792;-30
2023/01/25 03:15:26;;;;;;;53.40;40.92;;;0.20;99.90;;;;;;5020391;28;89492;-33
2023/01/25 03:17:51;;;;;;;52.25;37.13;;;0.20;99.90;;;;;;5017981;27;89010;-34
2023/01/25 03:20:17;;;;;;;55.10;39.95;;;0.20;99.90;;;;;;5020566;28;90364;-32
2023/01/25 03:22:42;;;;;;;59.03;39.72;;;0.20;99.90;;;;;;5019664;27;90790;-34
2023/01/25 03:25:08;;;;;;;55.67;39.90;;;0.20;99.90;;;;;;5021161;27;90375;-30
2023/01/25 03:27:34;;;;;;;49.60;36.58;;;0.20;99.90;;;;;;5019814;27;88354;-31
2023/01/25 03:29:59;;;;;;;56.30;40.10;;;0.30;99.90;;;;;;5019944;28;90079;-30
2023/01/25 03:32:25;;;;;;;53.08;40.92;;;0.30;99.90;;;;;;5020496;27;88166;-30
2023/01/25 03:34:51;;;;;;;60.22;44.05;;;0.30;99.90;;;;;;5020253;27;89424;-34
2023/01/25 03:37:16;;;;;;;51.33;38.22;;;0.30;99.90;;;;;;5020169;27;88109;-33
2023/01/25 03:39:42;;;;;;;61.95;42.13;;;0.20;99.90;;;;;;5019470;27;90405;-34
2023/01/25 03:42:08;;;;;;;61.92;39.45;;;0.30;99.90;;;;;;5020464;28;89488;-30
2023/01/25 03:44:33;;;;;;;63.53;43.80;;;0.20;99.90;;;;;;5020561;28;89196;-33
2023/01/25 03:46:59;;;;;;;53.75;38.78;;;0.30;99.90;;;;;;5019657;28;90590;-34
2023/01/25 03:49:25;;;;;;;54.33;38.67;;;0.20;99.90;;;;;;5019711;27;90830;-33
2023/01/25 03:51:50;;;;;;;63.25;43.28;;;0.20;99.90;;;;;;5019247;28;90124;-31
2023/01/25 03:54:16;;;;;;;50.33;39.40;;;0.20;99.90;;;;;;5019677;27;91848;-32
2023/01/25 03:56:41;;;;;;;54.05;39.90;;;0.20;99.90;;;;;;5019088;27;89280;-31
2023/01/25 03:59:07;;;;;;;61.33;43.30;;;0.20;99.90;;;;;;5020368;27;89940;-33
2023/01/25 04:01:33;;;;;;;56.80;42.20;;;0.20;99.90;;;;;;5019248;27;90100;-31
2023/01/25 04:03:58;;;;;;;54.15;39.70;;;0.20;99.90;;;;;;5019889;28;89302;-31
2023/01/25 04:06:24;;;;;;;59.70;43.33;;;0.20;99.90;;;;;;5019169;28;88546;-32
2023/01/25 04:08:49;;;;;;;61.67;44.90;;;0.20;99.90;;;;;;5019260;28;89490;-31
2023/01/25 04:11:15;;;;;;;55.17;40.47;;;0.20;99.90;;;;;;5019179;27;92286;-32
2023/01/25 04:13:41;;;;;;;59.50;42.17;;;0.20;99.90;;;;;;5019352;27;90546;-32
2023/01/25 04:16:10;;;;;;;61.47;41.13;;;0.20;99.90;;;;;;5019190;27;88315;-33
2023/01/25 04:18:36;;;;;;;53.83;40.20;;;0.20;99.90;;;;;;5019495;28;89953;-33
2023/01/25 04:21:02;;;;;;;53.42;36.47;;;0.20;99.90;;;;;;5018758;28;90190;-31
2023/01/25 04:23:27;;;;;;;60.00;40.78;;;0.20;99.90;;;;;;5001023;28;89496;-32
2023/01/25 04:25:58;;;;;;;56.35;36.08;;;0.20;99.90;;;;;;5018444;27;88899;-31
2023/01/25 04:28:25;;;;;;;54.03;37.08;;;0.20;99.90;;;;;;5019635;27;90364;-30
2023/01/25 04:30:52;;;;;;;46.20;35.80;;;0.20;99.90;;;;;;5018566;27;89791;-31
2023/01/25 04:33:17;;;;;;;46.83;34.42;;;0.20;99.90;;;;;;5019022;27;89463;-33
2023/01/25 04:35:43;;;;;;;47.85;35.13;;;0.20;99.90;;;;;;5018957;27;89987;-32
2023/01/25 04:38:09;;;;;;;47.13;36.00;;;0.20;99.90;;;;;;5018331;27;89970;-31
2023/01/25 04:40:35;;;;;;;49.40;36.85;;;0.20;99.90;;;;;;5019287;28;89945;-35
2023/01/25 04:43:01;;;;;;;47.40;36.53;;;0.20;99.90;;;;;;5019526;27;89387;-33
2023/01/25 04:45:27;;;;;;;52.78;39.85;;;0.10;99.90;;;;;;5019936;27;89616;-31
2023/01/25 04:47:57;;;;;;;53.70;36.85;;;0.10;99.90;;;;;;5019447;28;90647;-32
2023/01/25 04:50:24;;;;;;;60.45;38.17;;;0.10;99.90;;;;;;5018981;27;89762;-32
2023/01/25 04:52:49;;;;;;;58.22;40.67;;;0.10;99.90;;;;;;5019927;27;89518;-33
2023/01/25 04:55:15;;;;;;;54.03;40.00;;;0.10;99.90;;;;;;5026475;27;89757;-36
2023/01/25 04:57:41;;;;;;;60.25;43.15;;;0.10;99.90;;;;;;5018942;27;90415;-31
2023/01/25 05:00:07;;;;;;;58.60;41.00;;;0.10;99.90;;;;;;5018436;27;91075;-33
2023/01/25 05:02:33;;;;;;;57.25;41.35;;;0.10;99.90;;;;;;5019539;27;91528;-32
2023/01/25 05:04:58;;;;;;;46.63;37.78;;;0.10;99.90;;;;;;5018713;28;88562;-33
2023/01/25 05:07:24;;;;;;;51.50;40.42;;;0.10;99.90;;;;;;5018676;27;90122;-30
2023/01/25 05:09:49;;;;;;;50.53;37.75;;;0.10;99.90;;;;;;5017582;27;91193;-34
2023/01/25 05:12:15;;;;;;;56.53;39.88;;;0.20;99.90;;;;;;5018855;27;89688;-32
2023/01/25 05:14:41;;;;;;;61.33;41.50;;;0.20;99.90;;;;;;5018362;28;89422;-31
2023/01/25 05:17:07;;;;;;;57.83;43.10;;;0.10;99.90;;;;;;5019025;28;90216;-32
2023/01/25 05:19:33;;;;;;;57.25;39.90;;;0.10;99.90;;;;;;5017977;27;89695;-31
2023/01/25 05:22:00;;;;;;;63.55;42.95;;;0.10;99.90;;;;;;5018534;28;89248;-32
2023/01/25 05:24:30;;;;;;;59.72;43.25;;;0.10;99.90;;;;;;5017241;27;90067;-32
2023/01/25 05:26:59;;;;;;;58.65;41.53;;;0.10;99.90;;;;;;5018423;27;89868;-32
2023/01/25 05:29:36;;;;;;;57.58;37.75;;;0.10;99.90;;;;;;5005747;28;90252;-30
2023/01/25 05:32:06;;;;;;;63.63;40.70;;;0.10;99.90;;;;;;5018387;27;89101;-32
2023/01/25 05:34:33;;;;;;;52.55;37.33;;;0.10;99.90;;;;;;5018646;28;89340;-34
2023/01/25 05:36:59;;;;;;;49.78;35.83;;;0.00;99.90;;;;;;5018002;28;90252;-32
2023/01/25 05:39:24;;;;;;;47.50;35.10;;;0.00;99.90;;;;;;5018493;28;89747;-31
2023/01/25 05:41:50;;;;;;;48.28;35.35;;;0.00;99.90;;;;;;5017775;28;90674;-33
2023/01/25 05:44:16;;;;;;;55.45;36.55;;;0.00;99.90;;;;;;5017974;28;89414;-31
2023/01/25 05:46:41;;;;;;;41.88;33.10;;;0.00;99.90;;;;;;5017690;28;90637;-35
2023/01/25 05:49:08;;;;;;;52.35;36.60;;;0.00;99.90;;;;;;5017934;28;92315;-32
2023/01/25 05:51:34;;;;;;;50.72;34.85;;;0.00;99.90;;;;;;5018254;28;90172;-33
2023/01/25 05:54:00;;;;;;;47.72;33.70;;;0.00;99.90;;;;;;5018104;28;87930;-33
2023/01/25 05:56:26;;;;;;;48.58;34.00;;;-0.10;99.90;;;;;;5017929;27;90163;-30
2023/01/25 05:58:56;;;;;;;50.70;34.13;;;-0.10;99.90;;;;;;5018047;27;89690;-33
2023/01/25 06:01:22;;;;;;;46.28;32.20;;;-0.10;99.90;;;;;;5017582;27;89442;-31
2023/01/25 06:03:48;;;;;;;48.72;35.72;;;-0.10;99.90;;;;;;5018785;28;90045;-31
2023/01/25 06:06:14;;;;;;;40.20;31.60;;;-0.10;99.90;;;;;;5017349;27;89860;-33
2023/01/25 06:08:39;;;;;;;46.80;33.28;;;-0.10;99.90;;;;;;5017618;28;89610;-34
2023/01/25 06:11:20;;;;;;;45.22;33.42;;;-0.10;99.90;;;;;;5017140;27;89530;-32
2023/01/25 06:13:46;;;;;;;41.58;30.25;;;-0.10;99.90;;;;;;5010244;28;89617;-32
2023/01/25 06:16:12;;;;;;;35.35;28.77;;;0.00;99.90;;;;;;5017323;27;90468;-32
2023/01/25 06:18:38;;;;;;;46.05;32.60;;;0.00;99.90;;;;;;5017635;28;89661;-31
2023/01/25 06:21:04;;;;;;;38.88;30.08;;;0.00;99.90;;;;;;5017541;27;89971;-33
2023/01/25 06:23:30;;;;;;;47.50;33.13;;;0.00;99.90;;;;;;5017035;27;88171;-32
2023/01/25 06:26:01;;;;;;;43.63;29.90;;;0.00;99.90;;;;;;5017389;28;91771;-31
2023/01/25 06:28:32;;;;;;;44.50;33.88;;;0.00;99.90;;;;;;5018156;28;89700;-35
2023/01/25 06:31:07;;;;;;;40.35;34.05;;;0.00;99.90;;;;;;5017509;27;88714;-33
2023/01/25 06:33:33;;;;;;;44.40;32.55;;;0.00;99.90;;;;;;5018332;27;88476;-31
2023/01/25 06:36:19;;;;;;;46.30;31.02;;;0.00;99.90;;;;;;5017599;28;90320;-32
2023/01/25 06:38:51;;;;;;;43.70;31.67;;;0.00;99.90;;;;;;5016586;27;90519;-31
2023/01/25 06:41:18;;;;;;;42.13;30.88;;;0.00;99.90;;;;;;5016840;27;90336;-32
2023/01/25 06:43:44;;;;;;;50.20;32.13;;;0.00;99.90;;;;;;5017593;28;88388;-32
2023/01/25 06:46:11;;;;;;;46.90;31.90;;;0.00;99.90;;;;;;5017704;27;90569;-30
2023/01/25 06:48:37;;;;;;;44.30;30.05;;;0.00;99.90;;;;;;5018405;28;89844;-31
2023/01/25 06:51:05;;;;;;;48.50;32.22;;;0.00;99.90;;;;;;5021172;28;90266;-34
2023/01/25 06:53:34;;;;;;;43.50;31.63;;;0.00;99.90;;;;;;5020957;27;88853;-30
2023/01/25 06:56:01;;;;;;;43.67;33.70;;;0.00;99.90;;;;;;5020864;28;90316;-34
2023/01/25 06:58:28;;;;;;;47.13;33.83;;;-0.10;99.90;;;;;;5020462;28;89270;-33
2023/01/25 07:00:58;;;;;;;45.92;33.28;;;0.00;99.90;;;;;;5020050;28;89189;-33
2023/01/25 07:03:23;;;;;;;52.00;34.72;;;-0.10;99.90;;;;;;5019772;27;88864;-33
2023/01/25 07:05:49;;;;;;;51.55;37.95;;;-0.10;99.90;;;;;;5020566;27;90005;-31
2023/01/25 07:08:17;;;;;;;52.90;36.88;;;0.00;99.90;;;;;;5020769;28;88643;-31
2023/01/25 07:10:42;;;;;;;49.85;38.83;;;0.00;99.90;;;;;;5020237;28;90301;-33
2023/01/25 07:13:08;;;;;;;48.58;32.17;;;0.00;99.90;;;;;;5020694;28;89756;-30
2023/01/25 07:15:33;;;;;;;52.97;37.78;;;0.00;99.90;;;;;;5020025;27;90251;-31
2023/01/25 07:17:59;;;;;;;56.13;37.35;;;0.00;99.90;;;;;;5019887;27;89983;-31
2023/01/25 07:20:24;;;;;;;50.25;36.47;;;0.00;99.90;;;;;;5021355;28;90081;-31
2023/01/25 07:22:50;;;;;;;51.40;34.88;;;0.00;99.90;;;;;;5020657;27;88414;-34
2023/01/25 07:25:16;;;;;;;47.53;36.22;;;0.00;99.90;;;;;;5020060;27;89678;-32
2023/01/25 07:27:41;;;;;;;41.38;32.08;;;0.00;99.90;;;;;;5019203;28;90622;-33
2023/01/25 07:30:08;;;;;;;47.80;34.03;;;0.00;99.90;;;;;;5020479;28;91123;-31
2023/01/25 07:32:34;;;;;;;50.10;36.08;;;0.00;99.90;;;;;;5020329;27;89969;-33
2023/01/25 07:34:59;;;;;;;50.45;36.60;;;0.00;99.90;;;;;;5020454;28;89540;-31
2023/01/25 07:37:26;;;;;;;42.25;30.95;;;0.00;99.90;;;;;;5019533;28;89463;-31
2023/01/25 07:39:52;;;;;;;55.25;36.92;;;0.00;99.90;;;;;;5001786;28;89754;-31
2023/01/25 07:42:17;;;;;;;46.53;31.92;;;0.00;99.90;;;;;;5020815;28;89337;-31
2023/01/25 07:44:43;;;;;;;49.55;35.72;;;-0.10;99.90;;;;;;5020801;28;88233;-31
2023/01/25 07:47:09;;;;;;;49.22;32.47;;;0.00;99.90;;;;;;5019516;28;89707;-33
2023/01/25 07:49:34;;;;;;;55.03;34.90;;;0.00;99.90;;;;;;5010374;28;89551;-31
2023/01/25 07:52:00;;;;;;;56.28;37.75;;;0.00;99.90;;;;;;5019533;27;89536;-34
2023/01/25 07:54:25;;;;;;;51.60;32.67;;;-0.10;99.90;;;;;;5020211;28;89325;-31
2023/01/25 07:56:51;;;;;;;48.85;31.55;;;-0.10;99.90;;;;;;5019571;28;90055;-32
2023/01/25 07:59:16;;;;;;;54.08;30.95;;;-0.10;99.90;;;;;;5020711;28;89297;-32
2023/01/25 08:01:42;;;;;;;45.95;34.53;;;-0.10;99.90;;;;;;5018978;28;89666;-32
2023/01/25 08:04:08;;;;;;;51.80;33.90;;;-0.10;99.90;;;;;;5019806;28;89554;-30
2023/01/25 08:06:39;;;;;;;51.33;34.28;;;-0.10;99.90;;;;;;5017354;27;89115;-33
2023/01/25 08:09:12;;;;;;;47.75;31.35;;;-0.10;99.90;;;;;;5019022;28;90158;-30
2023/01/25 08:11:37;;;;;;;54.40;35.80;;;-0.10;99.90;;;;;;5019635;27;88939;-32
2023/01/25 08:14:03;;;;;;;42.83;31.35;;;-0.10;99.90;;;;;;5019522;27;90736;-31
2023/01/25 08:16:30;;;;;;;46.13;32.13;;;-0.10;99.90;;;;;;5017860;27;90248;-30
2023/01/25 08:18:59;;;;;;;49.28;33.40;;;-0.10;99.90;;;;;;5016785;28;90688;-32
2023/01/25 08:21:28;;;;;;;;;;;-0.10;99.90;;;;;;5018860;27;89591;-31
2023/01/25 08:23:56;;;;;;;57.05;34.05;;;-0.10;99.90;;;;;;5019903;28;90037;-32
2023/01/25 08:26:22;;;;;;;46.43;30.17;;;-0.10;99.90;;;;;;5018578;28;90445;-31
2023/01/25 08:28:48;;;;;;;51.38;34.22;;;-0.10;99.90;;;;;;5016274;28;89981;-30
2023/01/25 08:31:17;;;;;;;45.00;32.85;;;-0.10;99.90;;;;;;5018680;28;89850;-30
2023/01/25 08:33:45;;;;;;;47.72;32.72;;;-0.10;99.90;;;;;;5018343;27;90413;-31
2023/01/25 08:36:11;;;;;;;48.43;34.37;;;-0.10;99.90;;;;;;5017503;28;89910;-30
2023/01/25 08:38:38;;;;;;;48.45;33.25;;;-0.10;99.90;;;;;;5016991;28;90054;-31
2023/01/25 08:41:17;;;;;;;42.75;32.72;;;-0.10;99.90;;;;;;5014067;27;88454;-32
2023/01/25 08:43:43;;;;;;;42.92;29.38;;;-0.10;99.90;;;;;;5017857;27;90960;-31
2023/01/25 08:46:10;;;;;;;47.22;30.67;;;-0.20;99.90;;;;;;5017481;27;91149;-32
2023/01/25 08:48:36;;;;;;;50.85;33.25;;;-0.10;99.90;;;;;;5015677;28;89581;-36
2023/01/25 08:51:02;;;;;;;44.58;29.92;;;-0.10;99.90;;;;;;5015406;28;89468;-31
2023/01/25 08:53:29;;;;;;;55.13;34.95;;;0.00;99.90;;;;;;5015731;27;90309;-33
2023/01/25 08:55:55;;;;;;;52.63;32.97;;;0.00;99.90;;;;;;5015795;27;89847;-31
2023/01/25 08:58:21;;;;;;;47.58;32.88;;;0.00;99.90;;;;;;5017016;27;89493;-31
2023/01/25 09:00:48;;;;;;;49.28;34.03;;;0.00;99.90;;;;;;5015935;28;88639;-34
2023/01/25 09:03:14;;;;;;;47.47;34.88;;;-0.10;99.90;;;;;;5016584;27;89861;-34
2023/01/25 09:05:40;;;;;;;47.47;32.97;;;-0.10;99.90;;;;;;5015995;27;90941;-32
2023/01/25 09:08:07;;;;;;;49.15;31.95;;;-0.10;99.90;;;;;;5016105;27;90242;-32
2023/01/25 09:10:33;;;;;;;45.95;30.73;;;-0.20;99.90;;;;;;5016468;28;89337;-33
2023/01/25 09:12:59;;;;;;;51.20;35.97;;;-0.10;99.90;;;;;;5026335;27;90218;-33
2023/01/25 09:15:25;;;;;;;45.95;30.92;;;-0.20;99.90;;;;;;5016746;28;90049;-32
2023/01/25 09:17:55;;;;;;;47.72;33.00;;;-0.20;99.90;;;;;;5016361;28;88845;-34
2023/01/25 09:20:21;;;;;;;48.25;31.75;;;-0.10;99.90;;;;;;5017114;28;89706;-34
2023/01/25 09:22:47;;;;;;;46.67;31.75;;;-0.20;99.90;;;;;;5016507;27;90834;-31
2023/01/25 09:25:13;;;;;;;49.35;35.75;;;-0.10;99.90;;;;;;5015141;28;90192;-31
2023/01/25 09:27:39;;;;;;;52.38;35.80;;;-0.10;99.90;;;;;;5016658;27;90051;-32
2023/01/25 09:30:07;;;;;;;47.03;33.63;;;-0.10;99.90;;;;;;5015980;27;89463;-32
2023/01/25 09:32:32;;;;;;;49.95;36.85;;;-0.20;99.90;;;;;;5015700;28;92514;-31
2023/01/25 09:34:58;;;;;;;48.63;31.45;;;-0.20;99.90;;;;;;5016701;27;89677;-32
2023/01/25 09:37:23;;;;;;;45.03;33.40;;;-0.20;99.90;;;;;;5016497;28;88488;-32
2023/01/25 09:39:49;;;;;;;49.13;31.70;;;-0.10;99.90;;;;;;5017271;28;89758;-33
2023/01/25 09:42:38;;;;;;;46.65;30.38;;;-0.20;99.90;;;;;;5015920;28;90172;-31
2023/01/25 09:45:09;;;;;;;49.92;34.67;;;-0.10;99.90;;;;;;5016304;28;89652;-32
2023/01/25 09:47:47;;;;;;;50.88;33.08;;;-0.10;99.90;;;;;;5043843;22;89393;-35
2023/01/25 09:50:25;;;;;;;48.53;32.13;;;-0.10;99.90;;;;;;4977614;28;89401;-32
2023/01/25 09:53:02;;;;;;;52.20;36.47;;;-0.10;99.90;;;;;;4976855;28;90357;-31
2023/01/25 09:55:29;;;;;;;45.13;33.55;;;0.00;99.90;;;;;;4981289;28;89816;-33
2023/01/25 09:57:59;;;;;;;49.40;32.97;;;-0.10;99.90;;;;;;4993743;28;88847;-30
2023/01/25 10:00:36;;;;;;;55.92;34.17;;;-0.10;99.90;;;;;;4992592;28;88345;-32
2023/01/25 10:03:04;;;;;;;38.30;29.55;;;-0.10;99.90;;;;;;4991599;28;89977;-31
2023/01/25 10:05:44;;;;;;;48.60;33.15;;;-0.10;99.90;;;;;;4991863;28;90028;-33
2023/01/25 10:08:31;;;;;;;53.33;35.28;;;0.00;99.90;;;;;;4989950;28;89646;-33
2023/01/25 10:11:12;;;;;;;41.92;29.58;;;0.00;99.90;;;;;;4992645;28;90292;-30
2023/01/25 10:13:38;;;;;;;47.35;31.73;;;-0.10;99.90;;;;;;4994378;28;90165;-30
2023/01/25 10:16:14;;;;;;;50.40;32.05;;;-0.10;99.90;;;;;;4990606;28;89639;-32
2023/01/25 10:19:05;;;;;;;41.28;29.30;;;-0.10;99.90;;;;;;4977874;28;89319;-30
2023/01/25 10:21:47;;;;;;;60.60;36.45;;;0.00;99.90;;;;;;4990995;28;89644;-31
2023/01/25 10:24:29;;;;;;;50.90;32.92;;;-0.10;99.90;;;;;;4993603;28;90293;-33
2023/01/25 10:26:56;;;;;;;48.75;33.10;;;0.00;99.90;;;;;;4997085;28;89790;-34
2023/01/25 10:29:27;;;;;;;52.50;34.00;;;0.00;99.90;;;;;;4993692;28;89490;-31
2023/01/25 10:31:58;;;;;;;47.35;33.90;;;0.00;99.90;;;;;;4996480;28;89140;-34
2023/01/25 10:34:35;;;;;;;52.45;34.25;;;0.00;99.90;;;;;;4992609;28;90003;-32
2023/01/25 10:37:09;;;;;;;40.75;29.08;;;0.00;99.90;;;;;;4995431;28;90240;-31
2023/01/25 10:39:41;;;;;;;45.42;33.58;;;0.00;99.90;;;;;;4997634;28;89624;-32
2023/01/25 10:42:14;;;;;;;49.35;34.90;;;0.00;99.90;;;;;;4994524;28;88796;-30
2023/01/25 10:44:39;;;;;;;54.63;32.45;;;-0.10;99.90;;;;;;4997178;28;88912;-32
2023/01/25 10:47:40;;;;;;;47.25;33.40;;;-0.10;99.90;;;;;;4996670;28;90666;-32
2023/01/25 10:50:07;;;;;;;53.70;35.95;;;-0.10;99.90;;;;;;4988207;28;90731;-30
2023/01/25 10:52:36;;;;;;;54.40;36.00;;;0.00;99.90;;;;;;5001055;28;89029;-33
2023/01/25 10:55:05;;;;;;;53.63;33.90;;;0.00;99.90;;;;;;4999754;28;90635;-32
2023/01/25 10:57:31;;;;;;;;;;;0.00;99.90;;;;;;5000573;28;90354;-32
2023/01/25 10:59:58;;;;;;;44.92;30.73;;;0.10;99.90;;;;;;5002153;28;88742;-31
2023/01/25 11:02:44;;;;;;;48.20;30.10;;;0.00;99.90;;;;;;5001078;28;87998;-32
2023/01/25 11:05:33;;;;;;;54.33;37.40;;;0.00;99.90;;;;;;4976221;28;90735;-32
2023/01/25 11:08:18;;;;;;;45.83;32.35;;;0.10;99.90;;;;;;5000498;28;89826;-31
2023/01/25 11:10:45;;;;;;;44.75;33.67;;;0.10;99.90;;;;;;5000158;28;90654;-32
2023/01/25 11:13:18;;;;;;;46.58;33.17;;;0.00;99.90;;;;;;4974374;28;89922;-34
2023/01/25 11:15:58;;;;;;;48.42;33.88;;;0.10;99.90;;;;;;4999183;28;89855;-31
2023/01/25 11:18:28;;;;;;;45.38;30.70;;;0.10;99.90;;;;;;5000519;28;90269;-31
2023/01/25 11:21:05;;;;;;;50.05;32.40;;;0.20;99.90;;;;;;4998377;28;89225;-31
2023/01/25 11:23:32;;;;;;;47.40;31.73;;;0.10;99.90;;;;;;4999629;28;89235;-33
2023/01/25 11:26:11;;;;;;;44.17;31.60;;;0.10;99.90;;;;;;4998071;28;89055;-33
2023/01/25 11:28:37;;;;;;;47.00;31.85;;;0.10;99.90;;;;;;4998349;28;89507;-30
2023/01/25 11:31:02;;;;;;;49.50;30.83;;;0.00;99.90;;;;;;4999655;28;89450;-32
2023/01/25 11:33:29;;;;;;;43.80;33.20;;;0.10;99.90;;;;;;4998297;28;88441;-31
2023/01/25 11:36:10;;;;;;;39.63;28.83;;;0.10;99.90;;;;;;5000066;28;89947;-32
2023/01/25 11:38:38;;;;;;;48.78;32.80;;;0.10;99.90;;;;;;4997275;28;90396;-34
2023/01/25 11:41:38;;;;;;;46.67;31.45;;;0.10;99.90;;;;;;4999612;28;89142;-31
2023/01/25 11:44:36;;;;;;;42.05;32.60;;;0.00;99.90;;;;;;4975603;28;89238;-30
2023/01/25 11:47:36;;;;;;;46.70;31.98;;;0.10;99.90;;;;;;4997255;28;90425;-33
2023/01/25 11:50:10;;;;;;;50.65;32.47;;;0.10;99.90;;;;;;4999489;28;90958;-34
2023/01/25 11:52:51;;;;;;;40.83;31.00;;;0.00;99.90;;;;;;4989381;28;88522;-34
2023/01/25 11:55:33;;;;;;;45.35;25.70;;;0.10;99.90;;;;;;4999735;28;89039;-31
2023/01/25 11:58:24;;;;;;;43.58;30.40;;;0.00;99.90;;;;;;4984965;28;89385;-31
2023/01/25 12:01:14;;;;;;;44.53;31.08;;;0.00;99.90;;;;;;4980578;28;89170;-33
2023/01/25 12:03:58;;;;;;;41.55;28.30;;;0.00;99.90;;;;;;4980147;28;89887;-33
2023/01/25 12:06:55;;;;;;;47.42;29.98;;;-0.10;99.90;;;;;;4979621;28;90511;-32
2023/01/25 12:09:36;;;;;;;35.58;25.75;;;0.00;99.90;;;;;;4980289;28;90640;-32
2023/01/25 12:12:14;;;;;;;43.75;31.45;;;-0.10;99.90;;;;;;4980863;28;89630;-32
2023/01/25 12:15:00;;;;;;;34.85;27.17;;;-0.10;99.90;;;;;;4979862;28;89289;-31
2023/01/25 12:17:55;;;;;;;44.13;28.50;;;0.00;99.90;;;;;;4981026;28;87557;-32
2023/01/25 12:20:38;;;;;;;37.45;25.48;;;0.00;99.90;;;;;;5000292;28;90052;-35
2023/01/25 12:23:24;;;;;;;36.40;25.77;;;0.00;99.90;;;;;;4976028;28;89292;-32
2023/01/25 12:26:03;;;;;;;39.17;28.05;;;0.00;99.90;;;;;;4998330;28;89518;-32
2023/01/25 12:28:40;;;;;;;41.17;28.63;;;-0.10;99.90;;;;;;4999097;28;89711;-31
2023/01/25 12:31:15;;;;;;;39.80;25.73;;;-0.10;99.90;;;;;;4975189;28;89681;-32
2023/01/25 12:33:58;;;;;;;37.65;24.23;;;-0.10;99.90;;;;;;4995246;28;88852;-32
2023/01/25 12:36:36;;;;;;;44.45;27.48;;;-0.10;99.90;;;;;;4995251;28;90494;-33
2023/01/25 12:39:03;;;;;;;41.65;27.80;;;-0.10;99.90;;;;;;4996571;28;88874;-33
2023/01/25 12:41:50;;;;;;;34.67;25.70;;;-0.20;99.90;;;;;;4991120;28;91935;-31
2023/01/25 12:44:20;;;;;;;;;;;-0.20;99.90;;;;;;4986157;28;89135;-32
2023/01/25 12:46:54;;;;;;;39.92;24.50;;;-0.30;99.90;;;;;;4991141;28;90162;-32
2023/01/25 12:49:37;;;;;;;40.95;26.50;;;-0.30;99.90;;;;;;5000050;28;89505;-35